sensor_id;sensor_type;location;lat;lon;timestamp;P1;durP1;ratioP1;P2;durP2;ratioP2
67456;SDS011;54319;52.038;4.640;2023-02-15T00:01:30;54.38;;;27.55;;
67456;SDS011;54319;52.038;4.640;2023-02-15T00:06:24;51.17;;;27.17;;
67456;SDS011;54319;52.038;4.640;2023-02-15T00:08:53;46.42;;;26.73;;
67456;SDS011;54319;52.038;4.640;2023-02-15T00:11:20;55.47;;;26.83;;
67456;SDS011;54319;52.038;4.640;2023-02-15T00:14:06;44.95;;;25.88;;
67456;SDS011;54319;52.038;4.640;2023-02-15T00:16:34;51.78;;;27.92;;
67456;SDS011;54319;52.038;4.640;2023-02-15T00:21:29;53.40;;;27.92;;
67456;SDS011;54319;52.038;4.640;2023-02-15T00:23:58;52.55;;;28.05;;
67456;SDS011;54319;52.038;4.640;2023-02-15T00:26:26;62.92;;;30.67;;
67456;SDS011;54319;52.038;4.640;2023-02-15T00:28:54;60.33;;;30.95;;
67456;SDS011;54319;52.038;4.640;2023-02-15T00:31:22;65.80;;;33.75;;
67456;SDS011;54319;52.038;4.640;2023-02-15T00:33:49;64.93;;;31.50;;
67456;SDS011;54319;52.038;4.640;2023-02-15T00:36:16;61.93;;;32.20;;
67456;SDS011;54319;52.038;4.640;2023-02-15T00:38:43;63.17;;;31.80;;
67456;SDS011;54319;52.038;4.640;2023-02-15T00:41:10;65.15;;;32.30;;
67456;SDS011;54319;52.038;4.640;2023-02-15T00:43:38;65.07;;;31.30;;
67456;SDS011;54319;52.038;4.640;2023-02-15T00:46:06;60.58;;;30.52;;
67456;SDS011;54319;52.038;4.640;2023-02-15T00:48:34;60.78;;;29.55;;
67456;SDS011;54319;52.038;4.640;2023-02-15T00:51:01;57.65;;;29.83;;
67456;SDS011;54319;52.038;4.640;2023-02-15T00:53:28;62.08;;;28.30;;
67456;SDS011;54319;52.038;4.640;2023-02-15T00:55:55;60.38;;;30.42;;
67456;SDS011;54319;52.038;4.640;2023-02-15T00:58:22;53.72;;;27.20;;
67456;SDS011;54319;52.038;4.640;2023-02-15T01:00:49;54.47;;;28.50;;
67456;SDS011;54319;52.038;4.640;2023-02-15T01:03:18;59.05;;;28.23;;
67456;SDS011;54319;52.038;4.640;2023-02-15T01:05:50;55.22;;;28.13;;
67456;SDS011;54319;52.038;4.640;2023-02-15T01:08:17;56.63;;;27.77;;
67456;SDS011;54319;52.038;4.640;2023-02-15T01:10:44;51.60;;;28.60;;
67456;SDS011;54319;52.038;4.640;2023-02-15T01:13:12;55.55;;;27.70;;
67456;SDS011;54319;52.038;4.640;2023-02-15T01:15:40;53.85;;;27.80;;
67456;SDS011;54319;52.038;4.640;2023-02-15T01:18:07;63.50;;;29.63;;
67456;SDS011;54319;52.038;4.640;2023-02-15T01:20:35;64.22;;;30.30;;
67456;SDS011;54319;52.038;4.640;2023-02-15T01:23:07;59.45;;;29.25;;
67456;SDS011;54319;52.038;4.640;2023-02-15T01:25:34;56.42;;;27.95;;
67456;SDS011;54319;52.038;4.640;2023-02-15T01:28:02;64.60;;;28.70;;
67456;SDS011;54319;52.038;4.640;2023-02-15T01:30:29;57.58;;;30.60;;
67456;SDS011;54319;52.038;4.640;2023-02-15T01:32:58;63.80;;;32.92;;
67456;SDS011;54319;52.038;4.640;2023-02-15T01:35:25;54.70;;;29.30;;
67456;SDS011;54319;52.038;4.640;2023-02-15T01:37:53;63.60;;;30.85;;
67456;SDS011;54319;52.038;4.640;2023-02-15T01:40:23;53.88;;;28.27;;
67456;SDS011;54319;52.038;4.640;2023-02-15T01:42:51;56.13;;;27.65;;
67456;SDS011;54319;52.038;4.640;2023-02-15T01:45:20;64.97;;;28.48;;
67456;SDS011;54319;52.038;4.640;2023-02-15T01:47:50;49.58;;;26.70;;
67456;SDS011;54319;52.038;4.640;2023-02-15T01:50:22;53.08;;;26.75;;
67456;SDS011;54319;52.038;4.640;2023-02-15T01:52:55;48.72;;;24.52;;
67456;SDS011;54319;52.038;4.640;2023-02-15T01:55:27;50.10;;;24.83;;
67456;SDS011;54319;52.038;4.640;2023-02-15T01:58:00;51.30;;;25.15;;
67456;SDS011;54319;52.038;4.640;2023-02-15T02:00:27;51.08;;;25.60;;
67456;SDS011;54319;52.038;4.640;2023-02-15T02:07:50;48.40;;;22.63;;
67456;SDS011;54319;52.038;4.640;2023-02-15T02:10:19;43.00;;;23.08;;
67456;SDS011;54319;52.038;4.640;2023-02-15T02:12:50;45.33;;;23.63;;
67456;SDS011;54319;52.038;4.640;2023-02-15T02:15:20;45.58;;;24.95;;
67456;SDS011;54319;52.038;4.640;2023-02-15T02:17:54;44.80;;;24.30;;
67456;SDS011;54319;52.038;4.640;2023-02-15T02:20:37;46.70;;;24.50;;
67456;SDS011;54319;52.038;4.640;2023-02-15T02:23:26;47.70;;;24.65;;
67456;SDS011;54319;52.038;4.640;2023-02-15T02:29:40;49.40;;;25.38;;
67456;SDS011;54319;52.038;4.640;2023-02-15T02:32:42;44.30;;;22.38;;
67456;SDS011;54319;52.038;4.640;2023-02-15T02:35:18;47.22;;;24.17;;
67456;SDS011;54319;52.038;4.640;2023-02-15T02:37:56;50.40;;;24.50;;
67456;SDS011;54319;52.038;4.640;2023-02-15T02:40:32;54.78;;;25.27;;
67456;SDS011;54319;52.038;4.640;2023-02-15T02:43:07;48.63;;;25.23;;
67456;SDS011;54319;52.038;4.640;2023-02-15T02:45:43;51.83;;;24.60;;
67456;SDS011;54319;52.038;4.640;2023-02-15T02:48:18;51.80;;;25.38;;
67456;SDS011;54319;52.038;4.640;2023-02-15T02:50:47;44.85;;;24.15;;
67456;SDS011;54319;52.038;4.640;2023-02-15T02:53:16;49.58;;;26.23;;
67456;SDS011;54319;52.038;4.640;2023-02-15T02:55:43;49.35;;;25.30;;
67456;SDS011;54319;52.038;4.640;2023-02-15T02:58:14;53.80;;;26.85;;
67456;SDS011;54319;52.038;4.640;2023-02-15T03:00:45;52.92;;;26.13;;
67456;SDS011;54319;52.038;4.640;2023-02-15T03:03:20;58.22;;;27.60;;
67456;SDS011;54319;52.038;4.640;2023-02-15T03:05:53;50.22;;;27.25;;
67456;SDS011;54319;52.038;4.640;2023-02-15T03:08:25;53.30;;;25.90;;
67456;SDS011;54319;52.038;4.640;2023-02-15T03:10:58;50.97;;;25.63;;
67456;SDS011;54319;52.038;4.640;2023-02-15T03:13:27;57.75;;;27.08;;
67456;SDS011;54319;52.038;4.640;2023-02-15T03:15:54;65.90;;;28.85;;
67456;SDS011;54319;52.038;4.640;2023-02-15T03:18:45;55.88;;;28.55;;
67456;SDS011;54319;52.038;4.640;2023-02-15T03:21:18;62.83;;;28.27;;
67456;SDS011;54319;52.038;4.640;2023-02-15T03:23:50;62.17;;;28.35;;
67456;SDS011;54319;52.038;4.640;2023-02-15T03:26:21;54.80;;;27.85;;
67456;SDS011;54319;52.038;4.640;2023-02-15T03:28:50;66.30;;;30.77;;
67456;SDS011;54319;52.038;4.640;2023-02-15T03:31:21;68.32;;;30.13;;
67456;SDS011;54319;52.038;4.640;2023-02-15T03:33:55;60.90;;;30.73;;
67456;SDS011;54319;52.038;4.640;2023-02-15T03:36:26;56.97;;;29.60;;
67456;SDS011;54319;52.038;4.640;2023-02-15T03:39:02;64.30;;;30.48;;
67456;SDS011;54319;52.038;4.640;2023-02-15T03:41:34;55.05;;;27.63;;
67456;SDS011;54319;52.038;4.640;2023-02-15T03:44:08;57.78;;;26.52;;
67456;SDS011;54319;52.038;4.640;2023-02-15T03:46:40;55.80;;;27.40;;
67456;SDS011;54319;52.038;4.640;2023-02-15T03:49:13;49.83;;;26.92;;
67456;SDS011;54319;52.038;4.640;2023-02-15T03:51:45;49.75;;;24.80;;
67456;SDS011;54319;52.038;4.640;2023-02-15T03:54:16;48.08;;;23.85;;
67456;SDS011;54319;52.038;4.640;2023-02-15T03:57:01;51.08;;;24.38;;
67456;SDS011;54319;52.038;4.640;2023-02-15T03:59:47;49.28;;;24.02;;
67456;SDS011;54319;52.038;4.640;2023-02-15T04:02:33;49.40;;;25.50;;
67456;SDS011;54319;52.038;4.640;2023-02-15T04:05:07;43.78;;;23.33;;
67456;SDS011;54319;52.038;4.640;2023-02-15T04:07:34;48.38;;;24.55;;
67456;SDS011;54319;52.038;4.640;2023-02-15T04:10:01;48.50;;;25.52;;
67456;SDS011;54319;52.038;4.640;2023-02-15T04:12:46;48.40;;;25.38;;
67456;SDS011;54319;52.038;4.640;2023-02-15T04:15:13;52.22;;;25.02;;
67456;SDS011;54319;52.038;4.640;2023-02-15T04:17:57;53.10;;;24.30;;
67456;SDS011;54319;52.038;4.640;2023-02-15T04:20:28;54.53;;;26.38;;
67456;SDS011;54319;52.038;4.640;2023-02-15T04:23:13;49.42;;;24.75;;
67456;SDS011;54319;52.038;4.640;2023-02-15T04:25:57;51.80;;;25.15;;
67456;SDS011;54319;52.038;4.640;2023-02-15T04:28:24;47.67;;;25.10;;
67456;SDS011;54319;52.038;4.640;2023-02-15T04:30:51;49.67;;;24.35;;
67456;SDS011;54319;52.038;4.640;2023-02-15T04:33:18;43.90;;;23.85;;
67456;SDS011;54319;52.038;4.640;2023-02-15T04:35:46;49.60;;;23.77;;
67456;SDS011;54319;52.038;4.640;2023-02-15T04:38:13;50.08;;;25.63;;
67456;SDS011;54319;52.038;4.640;2023-02-15T04:40:40;56.05;;;26.67;;
67456;SDS011;54319;52.038;4.640;2023-02-15T04:43:07;51.50;;;25.65;;
67456;SDS011;54319;52.038;4.640;2023-02-15T04:45:33;54.00;;;28.10;;
67456;SDS011;54319;52.038;4.640;2023-02-15T04:48:01;46.22;;;25.15;;
67456;SDS011;54319;52.038;4.640;2023-02-15T04:50:28;49.67;;;27.27;;
67456;SDS011;54319;52.038;4.640;2023-02-15T04:52:56;59.88;;;27.42;;
67456;SDS011;54319;52.038;4.640;2023-02-15T04:55:24;60.08;;;28.73;;
67456;SDS011;54319;52.038;4.640;2023-02-15T04:57:51;72.22;;;30.42;;
67456;SDS011;54319;52.038;4.640;2023-02-15T05:00:18;65.85;;;29.48;;
67456;SDS011;54319;52.038;4.640;2023-02-15T05:02:45;64.85;;;29.92;;
67456;SDS011;54319;52.038;4.640;2023-02-15T05:05:12;65.10;;;29.67;;
67456;SDS011;54319;52.038;4.640;2023-02-15T05:10:08;60.05;;;28.65;;
67456;SDS011;54319;52.038;4.640;2023-02-15T05:12:35;63.60;;;30.27;;
67456;SDS011;54319;52.038;4.640;2023-02-15T05:15:02;71.30;;;32.13;;
67456;SDS011;54319;52.038;4.640;2023-02-15T05:17:29;62.28;;;29.45;;
67456;SDS011;54319;52.038;4.640;2023-02-15T05:19:56;70.22;;;29.33;;
67456;SDS011;54319;52.038;4.640;2023-02-15T05:22:23;72.05;;;30.10;;
67456;SDS011;54319;52.038;4.640;2023-02-15T05:24:50;64.35;;;29.40;;
67456;SDS011;54319;52.038;4.640;2023-02-15T05:27:35;69.40;;;29.27;;
67456;SDS011;54319;52.038;4.640;2023-02-15T05:30:20;66.47;;;30.33;;
67456;SDS011;54319;52.038;4.640;2023-02-15T05:32:47;66.32;;;29.70;;
67456;SDS011;54319;52.038;4.640;2023-02-15T05:35:14;60.38;;;26.88;;
67456;SDS011;54319;52.038;4.640;2023-02-15T05:37:42;72.00;;;30.35;;
67456;SDS011;54319;52.038;4.640;2023-02-15T05:40:09;65.72;;;30.08;;
67456;SDS011;54319;52.038;4.640;2023-02-15T05:42:39;61.25;;;27.88;;
67456;SDS011;54319;52.038;4.640;2023-02-15T05:45:06;60.25;;;28.23;;
67456;SDS011;54319;52.038;4.640;2023-02-15T05:47:34;56.45;;;28.40;;
67456;SDS011;54319;52.038;4.640;2023-02-15T05:50:01;59.63;;;28.63;;
67456;SDS011;54319;52.038;4.640;2023-02-15T05:52:28;64.10;;;26.65;;
67456;SDS011;54319;52.038;4.640;2023-02-15T05:54:55;62.15;;;28.85;;
67456;SDS011;54319;52.038;4.640;2023-02-15T05:57:21;59.97;;;29.00;;
67456;SDS011;54319;52.038;4.640;2023-02-15T05:59:50;56.25;;;27.50;;
67456;SDS011;54319;52.038;4.640;2023-02-15T06:02:16;56.70;;;27.48;;
67456;SDS011;54319;52.038;4.640;2023-02-15T06:04:44;53.65;;;27.20;;
67456;SDS011;54319;52.038;4.640;2023-02-15T06:07:10;60.70;;;27.52;;
67456;SDS011;54319;52.038;4.640;2023-02-15T06:09:38;68.70;;;30.75;;
67456;SDS011;54319;52.038;4.640;2023-02-15T06:12:04;67.65;;;30.20;;
67456;SDS011;54319;52.038;4.640;2023-02-15T06:14:32;71.63;;;29.60;;
67456;SDS011;54319;52.038;4.640;2023-02-15T06:16:59;65.70;;;29.80;;
67456;SDS011;54319;52.038;4.640;2023-02-15T06:19:27;60.03;;;29.45;;
67456;SDS011;54319;52.038;4.640;2023-02-15T06:21:53;60.70;;;28.17;;
67456;SDS011;54319;52.038;4.640;2023-02-15T06:24:20;63.10;;;28.73;;
67456;SDS011;54319;52.038;4.640;2023-02-15T06:26:47;60.72;;;28.45;;
67456;SDS011;54319;52.038;4.640;2023-02-15T06:29:14;63.47;;;30.25;;
67456;SDS011;54319;52.038;4.640;2023-02-15T06:31:40;68.03;;;28.75;;
67456;SDS011;54319;52.038;4.640;2023-02-15T06:34:09;65.93;;;27.88;;
67456;SDS011;54319;52.038;4.640;2023-02-15T06:36:36;68.93;;;29.08;;
67456;SDS011;54319;52.038;4.640;2023-02-15T06:39:03;71.10;;;27.83;;
67456;SDS011;54319;52.038;4.640;2023-02-15T06:41:31;69.65;;;29.70;;
67456;SDS011;54319;52.038;4.640;2023-02-15T06:43:59;56.85;;;29.23;;
67456;SDS011;54319;52.038;4.640;2023-02-15T06:48:52;55.15;;;26.17;;
67456;SDS011;54319;52.038;4.640;2023-02-15T06:51:20;61.03;;;28.40;;
67456;SDS011;54319;52.038;4.640;2023-02-15T06:53:47;65.90;;;28.42;;
67456;SDS011;54319;52.038;4.640;2023-02-15T06:56:14;60.67;;;28.73;;
67456;SDS011;54319;52.038;4.640;2023-02-15T07:01:11;56.75;;;27.92;;
67456;SDS011;54319;52.038;4.640;2023-02-15T07:03:38;56.65;;;27.23;;
67456;SDS011;54319;52.038;4.640;2023-02-15T07:06:05;67.50;;;27.73;;
67456;SDS011;54319;52.038;4.640;2023-02-15T07:08:35;62.90;;;28.75;;
67456;SDS011;54319;52.038;4.640;2023-02-15T07:11:03;60.53;;;28.27;;
67456;SDS011;54319;52.038;4.640;2023-02-15T07:13:48;58.92;;;28.63;;
67456;SDS011;54319;52.038;4.640;2023-02-15T07:16:15;66.55;;;28.90;;
67456;SDS011;54319;52.038;4.640;2023-02-15T07:18:43;56.85;;;27.25;;
67456;SDS011;54319;52.038;4.640;2023-02-15T07:21:10;65.38;;;29.17;;
67456;SDS011;54319;52.038;4.640;2023-02-15T07:23:39;59.15;;;28.70;;
67456;SDS011;54319;52.038;4.640;2023-02-15T07:26:05;73.20;;;29.60;;
67456;SDS011;54319;52.038;4.640;2023-02-15T07:28:34;63.35;;;28.88;;
67456;SDS011;54319;52.038;4.640;2023-02-15T07:31:01;57.83;;;29.20;;
67456;SDS011;54319;52.038;4.640;2023-02-15T07:33:29;61.28;;;30.63;;
67456;SDS011;54319;52.038;4.640;2023-02-15T07:38:27;56.05;;;26.55;;
67456;SDS011;54319;52.038;4.640;2023-02-15T07:40:58;63.47;;;29.08;;
67456;SDS011;54319;52.038;4.640;2023-02-15T07:43:26;62.90;;;29.17;;
67456;SDS011;54319;52.038;4.640;2023-02-15T07:45:52;58.67;;;28.20;;
67456;SDS011;54319;52.038;4.640;2023-02-15T07:48:19;58.40;;;30.05;;
67456;SDS011;54319;52.038;4.640;2023-02-15T07:50:47;60.58;;;28.88;;
67456;SDS011;54319;52.038;4.640;2023-02-15T07:53:14;63.15;;;30.13;;
67456;SDS011;54319;52.038;4.640;2023-02-15T07:55:40;62.70;;;31.08;;
67456;SDS011;54319;52.038;4.640;2023-02-15T07:58:10;66.28;;;30.73;;
67456;SDS011;54319;52.038;4.640;2023-02-15T08:00:37;59.50;;;29.85;;
67456;SDS011;54319;52.038;4.640;2023-02-15T08:03:17;63.10;;;31.00;;
67456;SDS011;54319;52.038;4.640;2023-02-15T08:05:44;60.25;;;30.45;;
67456;SDS011;54319;52.038;4.640;2023-02-15T08:08:12;65.20;;;30.63;;
67456;SDS011;54319;52.038;4.640;2023-02-15T08:10:57;64.53;;;29.27;;
67456;SDS011;54319;52.038;4.640;2023-02-15T08:13:44;69.88;;;31.85;;
67456;SDS011;54319;52.038;4.640;2023-02-15T08:16:20;58.42;;;29.73;;
67456;SDS011;54319;52.038;4.640;2023-02-15T08:18:48;59.08;;;28.83;;
67456;SDS011;54319;52.038;4.640;2023-02-15T08:21:15;63.40;;;29.50;;
67456;SDS011;54319;52.038;4.640;2023-02-15T08:23:42;56.88;;;29.08;;
67456;SDS011;54319;52.038;4.640;2023-02-15T08:26:09;67.50;;;31.10;;
67456;SDS011;54319;52.038;4.640;2023-02-15T08:28:37;65.43;;;31.00;;
67456;SDS011;54319;52.038;4.640;2023-02-15T08:31:06;56.17;;;29.77;;
67456;SDS011;54319;52.038;4.640;2023-02-15T08:33:34;61.30;;;30.55;;
67456;SDS011;54319;52.038;4.640;2023-02-15T08:36:02;64.82;;;30.00;;
67456;SDS011;54319;52.038;4.640;2023-02-15T08:38:30;58.42;;;29.50;;
67456;SDS011;54319;52.038;4.640;2023-02-15T08:40:57;68.53;;;30.90;;
67456;SDS011;54319;52.038;4.640;2023-02-15T08:43:24;65.47;;;31.63;;
67456;SDS011;54319;52.038;4.640;2023-02-15T08:45:50;68.22;;;31.33;;
67456;SDS011;54319;52.038;4.640;2023-02-15T08:50:46;57.05;;;29.63;;
67456;SDS011;54319;52.038;4.640;2023-02-15T08:53:13;54.70;;;29.00;;
67456;SDS011;54319;52.038;4.640;2023-02-15T08:55:39;59.88;;;30.08;;
67456;SDS011;54319;52.038;4.640;2023-02-15T08:58:07;57.75;;;29.50;;
67456;SDS011;54319;52.038;4.640;2023-02-15T09:00:33;59.15;;;30.00;;
67456;SDS011;54319;52.038;4.640;2023-02-15T09:03:00;52.53;;;28.98;;
67456;SDS011;54319;52.038;4.640;2023-02-15T09:05:28;58.58;;;28.70;;
67456;SDS011;54319;52.038;4.640;2023-02-15T09:07:56;56.38;;;28.88;;
67456;SDS011;54319;52.038;4.640;2023-02-15T09:10:22;55.08;;;29.45;;
67456;SDS011;54319;52.038;4.640;2023-02-15T09:12:49;57.08;;;28.38;;
67456;SDS011;54319;52.038;4.640;2023-02-15T09:15:16;58.00;;;27.70;;
67456;SDS011;54319;52.038;4.640;2023-02-15T09:17:43;54.50;;;27.90;;
67456;SDS011;54319;52.038;4.640;2023-02-15T09:20:10;55.17;;;27.73;;
67456;SDS011;54319;52.038;4.640;2023-02-15T09:22:38;49.83;;;26.95;;
67456;SDS011;54319;52.038;4.640;2023-02-15T09:25:05;52.03;;;27.80;;
67456;SDS011;54319;52.038;4.640;2023-02-15T09:27:33;46.30;;;26.00;;
67456;SDS011;54319;52.038;4.640;2023-02-15T09:29:59;54.70;;;27.87;;
67456;SDS011;54319;52.038;4.640;2023-02-15T09:32:28;57.88;;;28.48;;
67456;SDS011;54319;52.038;4.640;2023-02-15T09:34:54;49.13;;;26.08;;
67456;SDS011;54319;52.038;4.640;2023-02-15T09:37:21;49.70;;;27.15;;
67456;SDS011;54319;52.038;4.640;2023-02-15T09:39:49;50.17;;;25.83;;
67456;SDS011;54319;52.038;4.640;2023-02-15T09:42:21;47.13;;;25.40;;
67456;SDS011;54319;52.038;4.640;2023-02-15T09:45:17;48.70;;;26.25;;
67456;SDS011;54319;52.038;4.640;2023-02-15T09:50:52;46.57;;;24.93;;
67456;SDS011;54319;52.038;4.640;2023-02-15T09:53:38;50.83;;;25.52;;
67456;SDS011;54319;52.038;4.640;2023-02-15T09:56:22;49.42;;;25.33;;
67456;SDS011;54319;52.038;4.640;2023-02-15T09:58:58;48.05;;;24.35;;
67456;SDS011;54319;52.038;4.640;2023-02-15T10:01:33;43.38;;;25.55;;
67456;SDS011;54319;52.038;4.640;2023-02-15T10:04:13;46.33;;;25.40;;
67456;SDS011;54319;52.038;4.640;2023-02-15T10:06:53;45.83;;;25.05;;
67456;SDS011;54319;52.038;4.640;2023-02-15T10:09:30;44.97;;;24.17;;
67456;SDS011;54319;52.038;4.640;2023-02-15T10:12:14;50.33;;;24.85;;
67456;SDS011;54319;52.038;4.640;2023-02-15T10:17:55;50.38;;;25.50;;
67456;SDS011;54319;52.038;4.640;2023-02-15T10:20:40;46.08;;;24.40;;
67456;SDS011;54319;52.038;4.640;2023-02-15T10:23:21;45.13;;;25.58;;
67456;SDS011;54319;52.038;4.640;2023-02-15T10:26:04;47.50;;;24.63;;
67456;SDS011;54319;52.038;4.640;2023-02-15T10:28:42;47.08;;;25.05;;
67456;SDS011;54319;52.038;4.640;2023-02-15T10:31:16;48.63;;;25.05;;
67456;SDS011;54319;52.038;4.640;2023-02-15T10:33:50;45.20;;;24.63;;
67456;SDS011;54319;52.038;4.640;2023-02-15T10:36:32;48.50;;;25.80;;
67456;SDS011;54319;52.038;4.640;2023-02-15T10:39:14;46.97;;;25.65;;
67456;SDS011;54319;52.038;4.640;2023-02-15T10:41:50;49.55;;;24.67;;
67456;SDS011;54319;52.038;4.640;2023-02-15T10:44:32;45.78;;;25.17;;
67456;SDS011;54319;52.038;4.640;2023-02-15T10:47:13;48.38;;;24.90;;
67456;SDS011;54319;52.038;4.640;2023-02-15T10:49:59;45.42;;;24.92;;
67456;SDS011;54319;52.038;4.640;2023-02-15T10:52:39;49.80;;;25.63;;
67456;SDS011;54319;52.038;4.640;2023-02-15T10:55:21;47.30;;;25.88;;
67456;SDS011;54319;52.038;4.640;2023-02-15T10:57:59;44.55;;;25.00;;
67456;SDS011;54319;52.038;4.640;2023-02-15T11:00:35;47.60;;;25.02;;
67456;SDS011;54319;52.038;4.640;2023-02-15T11:03:22;47.10;;;24.75;;
67456;SDS011;54319;52.038;4.640;2023-02-15T11:06:01;43.42;;;24.02;;
67456;SDS011;54319;52.038;4.640;2023-02-15T11:08:32;45.13;;;25.73;;
67456;SDS011;54319;52.038;4.640;2023-02-15T11:11:03;40.13;;;23.45;;
67456;SDS011;54319;52.038;4.640;2023-02-15T11:13:34;44.30;;;25.02;;
67456;SDS011;54319;52.038;4.640;2023-02-15T11:16:07;45.75;;;23.23;;
67456;SDS011;54319;52.038;4.640;2023-02-15T11:18:43;43.85;;;24.30;;
67456;SDS011;54319;52.038;4.640;2023-02-15T11:21:17;46.90;;;24.58;;
67456;SDS011;54319;52.038;4.640;2023-02-15T11:23:49;43.40;;;23.83;;
67456;SDS011;54319;52.038;4.640;2023-02-15T11:26:19;46.97;;;24.42;;
67456;SDS011;54319;52.038;4.640;2023-02-15T11:28:52;42.95;;;24.02;;
67456;SDS011;54319;52.038;4.640;2023-02-15T11:31:24;41.30;;;24.25;;
67456;SDS011;54319;52.038;4.640;2023-02-15T11:33:53;42.80;;;24.05;;
67456;SDS011;54319;52.038;4.640;2023-02-15T11:36:27;41.58;;;23.65;;
67456;SDS011;54319;52.038;4.640;2023-02-15T11:39:02;40.42;;;22.60;;
67456;SDS011;54319;52.038;4.640;2023-02-15T11:41:36;45.83;;;24.15;;
67456;SDS011;54319;52.038;4.640;2023-02-15T11:44:10;41.15;;;22.67;;
67456;SDS011;54319;52.038;4.640;2023-02-15T11:46:43;43.42;;;23.33;;
67456;SDS011;54319;52.038;4.640;2023-02-15T11:49:14;39.25;;;23.33;;
67456;SDS011;54319;52.038;4.640;2023-02-15T11:51:48;37.33;;;23.13;;
67456;SDS011;54319;52.038;4.640;2023-02-15T11:54:17;43.58;;;23.05;;
67456;SDS011;54319;52.038;4.640;2023-02-15T11:56:44;44.63;;;22.65;;
67456;SDS011;54319;52.038;4.640;2023-02-15T11:59:12;39.72;;;21.95;;
67456;SDS011;54319;52.038;4.640;2023-02-15T12:01:44;42.97;;;23.02;;
67456;SDS011;54319;52.038;4.640;2023-02-15T12:04:14;42.80;;;22.52;;
67456;SDS011;54319;52.038;4.640;2023-02-15T12:06:48;44.40;;;24.38;;
67456;SDS011;54319;52.038;4.640;2023-02-15T12:09:22;40.53;;;23.00;;
67456;SDS011;54319;52.038;4.640;2023-02-15T12:11:55;40.28;;;22.65;;
67456;SDS011;54319;52.038;4.640;2023-02-15T12:14:51;45.35;;;23.67;;
67456;SDS011;54319;52.038;4.640;2023-02-15T12:17:21;42.75;;;23.77;;
67456;SDS011;54319;52.038;4.640;2023-02-15T12:19:50;44.03;;;22.88;;
67456;SDS011;54319;52.038;4.640;2023-02-15T12:22:20;39.97;;;21.90;;
67456;SDS011;54319;52.038;4.640;2023-02-15T12:24:50;41.70;;;22.35;;
67456;SDS011;54319;52.038;4.640;2023-02-15T12:27:20;44.35;;;21.83;;
67456;SDS011;54319;52.038;4.640;2023-02-15T12:29:51;41.90;;;22.45;;
67456;SDS011;54319;52.038;4.640;2023-02-15T12:32:22;40.97;;;21.83;;
67456;SDS011;54319;52.038;4.640;2023-02-15T12:34:51;39.72;;;22.13;;
67456;SDS011;54319;52.038;4.640;2023-02-15T12:37:27;41.38;;;22.55;;
67456;SDS011;54319;52.038;4.640;2023-02-15T12:39:57;39.65;;;21.23;;
67456;SDS011;54319;52.038;4.640;2023-02-15T12:42:25;37.88;;;21.60;;
67456;SDS011;54319;52.038;4.640;2023-02-15T12:44:55;36.97;;;20.85;;
67456;SDS011;54319;52.038;4.640;2023-02-15T12:47:26;37.97;;;20.77;;
67456;SDS011;54319;52.038;4.640;2023-02-15T12:52:49;35.72;;;20.95;;
67456;SDS011;54319;52.038;4.640;2023-02-15T12:55:18;40.15;;;21.73;;
67456;SDS011;54319;52.038;4.640;2023-02-15T12:57:48;36.53;;;19.95;;
67456;SDS011;54319;52.038;4.640;2023-02-15T13:03:03;37.00;;;20.47;;
67456;SDS011;54319;52.038;4.640;2023-02-15T13:05:31;38.08;;;20.75;;
67456;SDS011;54319;52.038;4.640;2023-02-15T13:08:01;40.35;;;20.38;;
67456;SDS011;54319;52.038;4.640;2023-02-15T13:10:35;38.03;;;20.80;;
67456;SDS011;54319;52.038;4.640;2023-02-15T13:13:08;40.75;;;20.88;;
67456;SDS011;54319;52.038;4.640;2023-02-15T13:15:37;36.63;;;19.83;;
67456;SDS011;54319;52.038;4.640;2023-02-15T13:18:12;35.97;;;20.08;;
67456;SDS011;54319;52.038;4.640;2023-02-15T13:20:42;41.20;;;20.58;;
67456;SDS011;54319;52.038;4.640;2023-02-15T13:23:15;42.13;;;21.10;;
67456;SDS011;54319;52.038;4.640;2023-02-15T13:25:50;42.78;;;20.65;;
67456;SDS011;54319;52.038;4.640;2023-02-15T13:28:18;31.55;;;18.33;;
67456;SDS011;54319;52.038;4.640;2023-02-15T13:30:50;38.63;;;20.17;;
67456;SDS011;54319;52.038;4.640;2023-02-15T13:33:23;37.67;;;19.58;;
67456;SDS011;54319;52.038;4.640;2023-02-15T13:35:58;39.50;;;19.77;;
67456;SDS011;54319;52.038;4.640;2023-02-15T13:38:39;39.95;;;19.77;;
67456;SDS011;54319;52.038;4.640;2023-02-15T13:41:12;38.15;;;19.55;;
67456;SDS011;54319;52.038;4.640;2023-02-15T13:43:46;39.30;;;18.83;;
67456;SDS011;54319;52.038;4.640;2023-02-15T13:46:21;37.88;;;20.17;;
67456;SDS011;54319;52.038;4.640;2023-02-15T13:49:03;39.30;;;18.92;;
67456;SDS011;54319;52.038;4.640;2023-02-15T13:51:41;40.08;;;19.60;;
67456;SDS011;54319;52.038;4.640;2023-02-15T13:57:27;38.88;;;19.50;;
67456;SDS011;54319;52.038;4.640;2023-02-15T14:00:12;35.27;;;20.77;;
67456;SDS011;54319;52.038;4.640;2023-02-15T14:02:59;38.97;;;20.00;;
67456;SDS011;54319;52.038;4.640;2023-02-15T14:05:50;37.88;;;19.35;;
67456;SDS011;54319;52.038;4.640;2023-02-15T14:08:28;37.95;;;19.08;;
67456;SDS011;54319;52.038;4.640;2023-02-15T14:11:10;36.88;;;19.33;;
67456;SDS011;54319;52.038;4.640;2023-02-15T14:13:53;35.30;;;18.55;;
67456;SDS011;54319;52.038;4.640;2023-02-15T14:16:30;36.28;;;18.42;;
67456;SDS011;54319;52.038;4.640;2023-02-15T14:19:04;40.92;;;19.73;;
67456;SDS011;54319;52.038;4.640;2023-02-15T14:21:45;34.22;;;18.48;;
67456;SDS011;54319;52.038;4.640;2023-02-15T14:24:18;41.05;;;19.83;;
67456;SDS011;54319;52.038;4.640;2023-02-15T14:29:28;33.97;;;18.67;;
67456;SDS011;54319;52.038;4.640;2023-02-15T14:32:08;39.35;;;19.05;;
67456;SDS011;54319;52.038;4.640;2023-02-15T14:34:42;33.47;;;18.67;;
67456;SDS011;54319;52.038;4.640;2023-02-15T14:37:13;35.55;;;19.98;;
67456;SDS011;54319;52.038;4.640;2023-02-15T14:39:47;36.72;;;19.13;;
67456;SDS011;54319;52.038;4.640;2023-02-15T14:42:40;40.20;;;20.02;;
67456;SDS011;54319;52.038;4.640;2023-02-15T14:45:15;40.67;;;19.73;;
67456;SDS011;54319;52.038;4.640;2023-02-15T14:47:48;36.85;;;20.10;;
67456;SDS011;54319;52.038;4.640;2023-02-15T14:50:35;46.17;;;21.05;;
67456;SDS011;54319;52.038;4.640;2023-02-15T14:53:17;36.10;;;20.60;;
67456;SDS011;54319;52.038;4.640;2023-02-15T14:59:00;38.03;;;20.27;;
67456;SDS011;54319;52.038;4.640;2023-02-15T15:01:54;38.50;;;19.73;;
67456;SDS011;54319;52.038;4.640;2023-02-15T15:04:25;36.70;;;19.00;;
67456;SDS011;54319;52.038;4.640;2023-02-15T15:07:00;41.20;;;20.83;;
67456;SDS011;54319;52.038;4.640;2023-02-15T15:09:36;41.95;;;20.15;;
67456;SDS011;54319;52.038;4.640;2023-02-15T15:12:15;41.22;;;21.33;;
67456;SDS011;54319;52.038;4.640;2023-02-15T15:15:06;38.95;;;20.08;;
67456;SDS011;54319;52.038;4.640;2023-02-15T15:17:52;38.38;;;20.70;;
67456;SDS011;54319;52.038;4.640;2023-02-15T15:20:40;39.17;;;20.58;;
67456;SDS011;54319;52.038;4.640;2023-02-15T15:26:24;43.13;;;20.55;;
67456;SDS011;54319;52.038;4.640;2023-02-15T15:28:57;41.65;;;20.77;;
67456;SDS011;54319;52.038;4.640;2023-02-15T15:31:27;39.03;;;21.63;;
67456;SDS011;54319;52.038;4.640;2023-02-15T15:34:14;39.53;;;21.23;;
67456;SDS011;54319;52.038;4.640;2023-02-15T15:36:56;45.38;;;20.67;;
67456;SDS011;54319;52.038;4.640;2023-02-15T15:42:32;38.25;;;20.95;;